Time;durP1;ratioP1;P1;durP2;ratioP2;P2;SDS_P1;SDS_P2;PMS_P1;PMS_P2;Temp;Humidity;BMP_temperature;BMP_pressure;BME280_temperature;BME280_humidity;BME280_pressure;Samples;Min_cycle;Max_cycle;Signal;HPM_P1;HPM_P2
2022/11/19 00:01:16;;;;;;;3.78;2.17;;;;;;;;;;5038138;28;20025;-79
2022/11/19 00:03:43;;;;;;;3.25;1.63;;;;;;;;;;5053096;28;20044;-79
2022/11/19 00:06:24;;;;;;;5.10;1.48;;;;;;;;;;5022377;28;20402;-79
2022/11/19 00:08:53;;;;;;;4.15;1.58;;;;;;;;;;5023482;28;20194;-79
2022/11/19 00:14:11;;;;;;;4.05;1.73;;;;;;;;;;5060258;28;20037;-79
2022/11/19 00:16:41;;;;;;;4.60;1.55;;;;;;;;;;5022087;28;20033;-79
2022/11/19 00:19:11;;;;;;;3.55;1.60;;;;;;;;;;5071328;28;20044;-79
2022/11/19 00:21:38;;;;;;;3.92;2.05;;;;;;;;;;5021806;28;20024;-79
2022/11/19 00:24:05;;;;;;;3.38;2.15;;;;;;;;;;5021510;28;20086;-79
2022/11/19 00:26:33;;;;;;;3.28;1.48;;;;;;;;;;5022064;28;20063;-79
2022/11/19 00:29:00;;;;;;;5.68;1.85;;;;;;;;;;5022128;28;20059;-79
2022/11/19 00:31:26;;;;;;;3.28;1.40;;;;;;;;;;5035017;28;20071;-79
2022/11/19 00:33:54;;;;;;;3.72;1.50;;;;;;;;;;5041544;28;20036;-79
2022/11/19 00:36:22;;;;;;;3.95;1.50;;;;;;;;;;5041195;28;20505;-78
2022/11/19 00:38:49;;;;;;;3.88;1.58;;;;;;;;;;5050385;28;20417;-79
2022/11/19 00:41:16;;;;;;;3.70;1.80;;;;;;;;;;5036863;28;20045;-78
2022/11/19 00:43:46;;;;;;;3.75;1.80;;;;;;;;;;5037577;28;20029;-78
2022/11/19 00:46:17;;;;;;;3.38;1.60;;;;;;;;;;5054251;28;20063;-78
2022/11/19 00:48:46;;;;;;;3.15;1.73;;;;;;;;;;5053911;28;20051;-78
2022/11/19 00:51:13;;;;;;;3.22;1.90;;;;;;;;;;5053450;28;20043;-77
2022/11/19 00:53:39;;;;;;;3.25;1.35;;;;;;;;;;5037641;28;20497;-79
2022/11/19 00:56:07;;;;;;;2.10;1.20;;;;;;;;;;5053979;28;20031;-78
2022/11/19 00:58:34;;;;;;;4.47;1.75;;;;;;;;;;5037346;28;20070;-78
2022/11/19 01:01:00;;;;;;;3.08;1.75;;;;;;;;;;5037372;28;20032;-78
2022/11/19 01:03:26;;;;;;;2.90;1.50;;;;;;;;;;5049526;28;20033;-78
2022/11/19 01:05:53;;;;;;;3.20;1.70;;;;;;;;;;5037392;28;20405;-78
2022/11/19 01:08:21;;;;;;;3.22;1.67;;;;;;;;;;5037921;28;20138;-79
2022/11/19 01:10:49;;;;;;;2.92;1.48;;;;;;;;;;5037649;28;20415;-79
2022/11/19 01:13:35;;;;;;;3.75;1.58;;;;;;;;;;5037724;28;20153;-79
2022/11/19 01:16:06;;;;;;;3.22;1.70;;;;;;;;;;5042596;28;20033;-78
2022/11/19 01:18:34;;;;;;;3.70;1.87;;;;;;;;;;5037731;28;20150;-79
2022/11/19 01:21:03;;;;;;;2.10;1.30;;;;;;;;;;5037384;28;20667;-79
2022/11/19 01:23:32;;;;;;;3.33;1.35;;;;;;;;;;5021444;28;20033;-79
2022/11/19 01:26:00;;;;;;;3.88;1.55;;;;;;;;;;5037733;28;20489;-78
2022/11/19 01:28:28;;;;;;;3.30;1.88;;;;;;;;;;5037715;28;20413;-79
2022/11/19 01:30:56;;;;;;;2.08;1.20;;;;;;;;;;5047105;28;20094;-79
2022/11/19 01:33:23;;;;;;;3.15;1.58;;;;;;;;;;5074019;28;20036;-79
2022/11/19 01:35:59;;;;;;;2.80;1.33;;;;;;;;;;5040335;28;20054;-79
2022/11/19 01:38:26;;;;;;;2.97;1.40;;;;;;;;;;5046275;28;20103;-79
2022/11/19 01:40:53;;;;;;;3.42;1.50;;;;;;;;;;5036771;28;20064;-79
2022/11/19 01:43:37;;;;;;;2.47;1.35;;;;;;;;;;5053372;28;20494;-78
2022/11/19 01:46:04;;;;;;;3.42;1.63;;;;;;;;;;5037194;28;20110;-78
2022/11/19 01:48:32;;;;;;;3.83;1.73;;;;;;;;;;5037171;28;20036;-80
2022/11/19 01:51:01;;;;;;;3.92;2.05;;;;;;;;;;5036444;28;20482;-79
2022/11/19 01:53:32;;;;;;;2.33;1.50;;;;;;;;;;5036951;28;20179;-78
2022/11/19 01:56:02;;;;;;;3.03;1.42;;;;;;;;;;5036871;28;20039;-79
2022/11/19 01:58:31;;;;;;;2.47;1.30;;;;;;;;;;5040113;28;20028;-79
2022/11/19 02:00:59;;;;;;;3.58;1.35;;;;;;;;;;5040823;28;20189;-79
2022/11/19 02:03:29;;;;;;;3.60;1.20;;;;;;;;;;5056433;28;20118;-79
2022/11/19 02:06:00;;;;;;;3.92;1.20;;;;;;;;;;5044644;28;20047;-79
2022/11/19 02:08:39;;;;;;;3.22;1.42;;;;;;;;;;5044499;28;20504;-79
2022/11/19 02:11:30;;;;;;;3.17;1.67;;;;;;;;;;5061066;28;20034;-80
2022/11/19 02:14:09;;;;;;;2.85;1.30;;;;;;;;;;5077245;28;20042;-79
2022/11/19 02:16:55;;;;;;;2.13;1.00;;;;;;;;;;5077191;28;20416;-79
2022/11/19 02:20:03;;;;;;;2.88;1.23;;;;;;;;;;5077198;28;20028;-79
2022/11/19 02:22:44;;;;;;;3.28;1.30;;;;;;;;;;5049394;28;20140;-79
2022/11/19 02:25:37;;;;;;;2.92;1.48;;;;;;;;;;5076608;28;20396;-78
2022/11/19 02:28:21;;;;;;;2.40;1.20;;;;;;;;;;5076178;28;20065;-79
2022/11/19 02:30:51;;;;;;;2.40;1.20;;;;;;;;;;5083384;28;20091;-79
2022/11/19 02:33:27;;;;;;;2.92;1.00;;;;;;;;;;5037836;28;20072;-78
2022/11/19 02:36:25;;;;;;;2.47;1.40;;;;;;;;;;5038656;28;20033;-79
2022/11/19 02:39:03;;;;;;;1.95;1.25;;;;;;;;;;5040564;28;20068;-79
2022/11/19 02:41:43;;;;;;;2.30;1.08;;;;;;;;;;5038142;28;20028;-79
2022/11/19 02:46:52;;;;;;;3.13;1.20;;;;;;;;;;5089208;28;20126;-79
2022/11/19 02:49:19;;;;;;;2.08;0.95;;;;;;;;;;5056042;28;20040;-79
2022/11/19 02:51:46;;;;;;;2.50;1.30;;;;;;;;;;5072931;28;20040;-79
2022/11/19 02:54:11;;;;;;;3.00;1.20;;;;;;;;;;5056118;28;20032;-79
2022/11/19 02:56:51;;;;;;;2.58;1.23;;;;;;;;;;5055781;28;20047;-79
2022/11/19 03:05:10;;;;;;;2.30;1.20;;;;;;;;;;5064120;28;20036;-78
2022/11/19 03:07:35;;;;;;;2.60;1.38;;;;;;;;;;5059454;28;20048;-79
2022/11/19 03:10:03;;;;;;;2.78;1.17;;;;;;;;;;5058307;28;20059;-79
2022/11/19 03:12:47;;;;;;;2.17;1.15;;;;;;;;;;5059144;28;20090;-79
2022/11/19 03:18:22;;;;;;;2.28;1.08;;;;;;;;;;5092340;28;20079;-78
2022/11/19 03:20:54;;;;;;;2.97;1.38;;;;;;;;;;5058876;28;20111;-78
2022/11/19 03:23:26;;;;;;;;;;;;;;;;;;5060225;28;20085;-78
2022/11/19 03:26:19;;;;;;;2.67;1.00;;;;;;;;;;5058453;28;20007;-78
2022/11/19 03:28:44;;;;;;;3.13;1.10;;;;;;;;;;5067679;28;20051;-78
2022/11/19 03:31:10;;;;;;;2.15;0.95;;;;;;;;;;5041603;28;20135;-78
2022/11/19 03:33:46;;;;;;;3.22;1.13;;;;;;;;;;5075336;28;20459;-78
2022/11/19 03:36:15;;;;;;;2.25;1.17;;;;;;;;;;5042895;28;20485;-78
2022/11/19 03:38:49;;;;;;;2.63;1.20;;;;;;;;;;5050262;28;20054;-79
2022/11/19 03:41:16;;;;;;;2.33;1.40;;;;;;;;;;5038569;28;20028;-79
2022/11/19 03:43:42;;;;;;;2.72;1.17;;;;;;;;;;5038106;28;20055;-79
2022/11/19 03:46:10;;;;;;;2.35;0.88;;;;;;;;;;5038331;28;20031;-78
2022/11/19 03:48:35;;;;;;;1.85;1.05;;;;;;;;;;5038391;28;20040;-78
2022/11/19 03:51:04;;;;;;;2.08;1.13;;;;;;;;;;5038083;28;20036;-78
2022/11/19 03:53:29;;;;;;;3.08;1.20;;;;;;;;;;5038543;28;20473;-79
2022/11/19 03:55:56;;;;;;;2.33;1.13;;;;;;;;;;5054575;28;20039;-79
2022/11/19 03:58:25;;;;;;;2.45;1.10;;;;;;;;;;5054723;28;20071;-78
2022/11/19 04:00:50;;;;;;;1.95;0.88;;;;;;;;;;5037711;28;20193;-79
2022/11/19 04:03:16;;;;;;;2.17;1.02;;;;;;;;;;5049093;28;20148;-79
2022/11/19 04:05:41;;;;;;;2.90;1.30;;;;;;;;;;5037553;28;20044;-79
2022/11/19 04:08:06;;;;;;;2.63;1.20;;;;;;;;;;5037921;28;20387;-79
2022/11/19 04:10:32;;;;;;;1.98;1.20;;;;;;;;;;5037795;28;20414;-79
2022/11/19 04:12:57;;;;;;;1.80;1.00;;;;;;;;;;5037797;28;20041;-79
2022/11/19 04:15:23;;;;;;;2.72;0.90;;;;;;;;;;5037592;28;20036;-80
2022/11/19 04:17:48;;;;;;;2.13;1.15;;;;;;;;;;5038345;28;20043;-80
2022/11/19 04:20:13;;;;;;;2.35;1.20;;;;;;;;;;5037783;28;20040;-80
2022/11/19 04:22:39;;;;;;;2.35;1.20;;;;;;;;;;5037132;28;20047;-79
2022/11/19 04:25:05;;;;;;;4.35;1.23;;;;;;;;;;5038147;28;20036;-80
2022/11/19 04:27:30;;;;;;;4.05;1.08;;;;;;;;;;5037948;28;20041;-80
2022/11/19 04:29:55;;;;;;;1.88;1.10;;;;;;;;;;5055313;28;20033;-80
2022/11/19 04:32:21;;;;;;;2.63;1.25;;;;;;;;;;5041523;28;20493;-81
2022/11/19 04:34:46;;;;;;;2.85;1.20;;;;;;;;;;5074265;28;20036;-80
2022/11/19 04:37:12;;;;;;;3.17;1.30;;;;;;;;;;5074289;28;20051;-79
2022/11/19 04:39:37;;;;;;;3.70;1.33;;;;;;;;;;5074428;28;20040;-79
2022/11/19 04:42:03;;;;;;;1.85;0.90;;;;;;;;;;5074117;28;20040;-79
2022/11/19 04:44:28;;;;;;;2.30;0.88;;;;;;;;;;5056806;28;20611;-79
2022/11/19 04:46:53;;;;;;;2.20;1.20;;;;;;;;;;5073979;28;20040;-79
2022/11/19 04:49:19;;;;;;;1.95;0.90;;;;;;;;;;5057295;28;20454;-79
2022/11/19 04:51:44;;;;;;;2.25;1.25;;;;;;;;;;5057588;28;20046;-79
2022/11/19 04:54:12;;;;;;;2.53;0.80;;;;;;;;;;5074704;28;20059;-79
2022/11/19 04:56:37;;;;;;;2.35;1.15;;;;;;;;;;5056888;28;20511;-79
2022/11/19 04:59:04;;;;;;;2.83;0.93;;;;;;;;;;5056984;28;20510;-79
2022/11/19 05:01:29;;;;;;;2.00;0.82;;;;;;;;;;5074026;28;20560;-79
2022/11/19 05:03:55;;;;;;;2.30;1.10;;;;;;;;;;5073767;28;20038;-79
2022/11/19 05:06:20;;;;;;;2.63;0.98;;;;;;;;;;5073768;28;20058;-79
2022/11/19 05:08:46;;;;;;;2.15;1.10;;;;;;;;;;5073584;28;20039;-79
2022/11/19 05:11:11;;;;;;;1.92;0.90;;;;;;;;;;5073533;28;20044;-79
2022/11/19 05:13:36;;;;;;;2.97;1.08;;;;;;;;;;5073210;28;20486;-79
2022/11/19 05:16:02;;;;;;;3.15;1.10;;;;;;;;;;5040969;28;20025;-79
2022/11/19 05:18:27;;;;;;;2.70;1.27;;;;;;;;;;5074032;28;20039;-79
2022/11/19 05:20:53;;;;;;;2.25;1.20;;;;;;;;;;5056936;28;20039;-79
2022/11/19 05:23:18;;;;;;;3.25;1.10;;;;;;;;;;5073607;28;20032;-79
2022/11/19 05:25:44;;;;;;;2.15;0.98;;;;;;;;;;5073665;28;20081;-79
2022/11/19 05:28:09;;;;;;;2.67;1.23;;;;;;;;;;5039983;28;20028;-79
2022/11/19 05:30:34;;;;;;;2.85;1.15;;;;;;;;;;5040556;28;20085;-79
2022/11/19 05:33:00;;;;;;;2.13;1.10;;;;;;;;;;5041985;28;20032;-79
2022/11/19 05:35:25;;;;;;;1.67;0.80;;;;;;;;;;5044057;28;20036;-79
2022/11/19 05:37:52;;;;;;;2.33;1.10;;;;;;;;;;5040945;28;20041;-78
2022/11/19 05:40:21;;;;;;;2.65;1.20;;;;;;;;;;5057790;28;20033;-79
2022/11/19 05:42:48;;;;;;;3.20;1.15;;;;;;;;;;5057026;28;20596;-79
2022/11/19 05:45:15;;;;;;;1.75;0.98;;;;;;;;;;5058985;28;20029;-79
2022/11/19 05:47:42;;;;;;;1.85;1.13;;;;;;;;;;5076791;28;20043;-79
2022/11/19 05:50:08;;;;;;;3.55;1.00;;;;;;;;;;5043849;28;20028;-77
2022/11/19 05:52:39;;;;;;;2.30;0.90;;;;;;;;;;5077060;28;20042;-80
2022/11/19 05:55:07;;;;;;;2.28;1.20;;;;;;;;;;5092924;28;20529;-78
2022/11/19 05:57:38;;;;;;;5.72;1.90;;;;;;;;;;5076117;28;20397;-82
2022/11/19 06:00:07;;;;;;;2.63;1.20;;;;;;;;;;5060184;28;20404;-79
2022/11/19 06:02:33;;;;;;;2.30;1.25;;;;;;;;;;5043408;28;20767;-78
2022/11/19 06:05:00;;;;;;;2.83;1.45;;;;;;;;;;5075160;28;20032;-78
2022/11/19 06:07:26;;;;;;;2.22;1.20;;;;;;;;;;5043675;28;20032;-78
2022/11/19 06:09:56;;;;;;;2.33;1.20;;;;;;;;;;5073864;28;20059;-79
2022/11/19 06:12:23;;;;;;;3.83;1.65;;;;;;;;;;5043393;28;20032;-78
2022/11/19 06:14:51;;;;;;;3.35;1.52;;;;;;;;;;5072445;28;20074;-82
2022/11/19 06:17:18;;;;;;;3.05;1.00;;;;;;;;;;5058672;28;20044;-80
2022/11/19 06:19:45;;;;;;;3.17;1.20;;;;;;;;;;5072966;28;20086;-78
2022/11/19 06:22:12;;;;;;;2.20;1.10;;;;;;;;;;5060692;28;20036;-80
2022/11/19 06:24:40;;;;;;;1.95;0.98;;;;;;;;;;5076556;28;20059;-79
2022/11/19 06:27:08;;;;;;;3.13;1.38;;;;;;;;;;5076934;28;20043;-80
2022/11/19 06:29:37;;;;;;;3.45;1.98;;;;;;;;;;5074889;28;20458;-79
2022/11/19 06:32:04;;;;;;;3.92;1.60;;;;;;;;;;5051726;28;20511;-79
2022/11/19 06:34:31;;;;;;;4.15;1.58;;;;;;;;;;5050342;28;20429;-80
2022/11/19 06:37:00;;;;;;;3.35;1.45;;;;;;;;;;5076599;28;20032;-80
2022/11/19 06:39:28;;;;;;;5.22;1.88;;;;;;;;;;5075761;28;20039;-81
2022/11/19 06:42:34;;;;;;;5.28;1.75;;;;;;;;;;5075086;28;20032;-79
2022/11/19 06:44:43;;;;;;;6.18;2.05;;;;;;;;;;5064524;28;20429;-80
2022/11/19 06:47:10;;;;;;;5.32;1.85;;;;;;;;;;5043543;28;20039;-79
2022/11/19 06:49:39;;;;;;;7.15;1.80;;;;;;;;;;5043442;28;20036;-80
2022/11/19 06:52:07;;;;;;;6.82;2.67;;;;;;;;;;5042779;28;20039;-80
2022/11/19 06:54:33;;;;;;;4.35;1.67;;;;;;;;;;5058715;28;20036;-79
2022/11/19 06:57:02;;;;;;;3.92;1.40;;;;;;;;;;5042351;28;20035;-81
2022/11/19 06:59:31;;;;;;;3.22;1.45;;;;;;;;;;5075178;28;20127;-81
2022/11/19 07:01:57;;;;;;;6.20;1.85;;;;;;;;;;5075205;28;20037;-79
2022/11/19 07:04:23;;;;;;;6.18;1.58;;;;;;;;;;5075844;28;20115;-80
2022/11/19 07:06:55;;;;;;;5.03;1.98;;;;;;;;;;5056549;28;20037;-81
2022/11/19 07:09:23;;;;;;;4.03;1.65;;;;;;;;;;5039831;28;20064;-80
2022/11/19 07:11:51;;;;;;;3.05;1.42;;;;;;;;;;5039858;28;20413;-81
2022/11/19 07:14:20;;;;;;;6.32;1.83;;;;;;;;;;5056122;28;20040;-80
2022/11/19 07:16:50;;;;;;;4.88;1.60;;;;;;;;;;5039724;28;20379;-80
2022/11/19 07:19:19;;;;;;;4.93;1.48;;;;;;;;;;5056263;28;20612;-80
2022/11/19 07:21:47;;;;;;;3.85;1.50;;;;;;;;;;5056339;28;20502;-79
2022/11/19 07:24:16;;;;;;;5.57;1.50;;;;;;;;;;5039341;28;20402;-79
2022/11/19 07:26:46;;;;;;;4.45;1.63;;;;;;;;;;5039759;28;20409;-80
2022/11/19 07:29:16;;;;;;;6.90;2.03;;;;;;;;;;5072692;28;20414;-80
2022/11/19 07:31:48;;;;;;;6.20;1.70;;;;;;;;;;5055291;28;20123;-79
2022/11/19 07:34:15;;;;;;;4.53;1.58;;;;;;;;;;5044088;28;20032;-79
2022/11/19 07:36:43;;;;;;;7.43;2.05;;;;;;;;;;5059969;28;20032;-79
2022/11/19 07:39:12;;;;;;;5.85;1.70;;;;;;;;;;5042685;28;20524;-80
2022/11/19 07:44:25;;;;;;;85.88;58.33;;;;;;;;;;5092489;28;20401;-80
2022/11/19 07:46:55;;;;;;;77.00;51.88;;;;;;;;;;5059038;28;20036;-80
2022/11/19 07:49:21;;;;;;;65.22;45.63;;;;;;;;;;5075907;28;20708;-80
2022/11/19 07:51:48;;;;;;;66.78;42.17;;;;;;;;;;5058661;28;20035;-79
2022/11/19 07:54:16;;;;;;;55.30;40.38;;;;;;;;;;5059000;28;20038;-79
2022/11/19 07:56:45;;;;;;;55.85;37.97;;;;;;;;;;5058896;28;20063;-80
2022/11/19 07:59:11;;;;;;;50.42;35.15;;;;;;;;;;5075228;28;20032;-79
2022/11/19 08:01:37;;;;;;;47.88;32.40;;;;;;;;;;5075253;28;20055;-79
2022/11/19 08:04:06;;;;;;;42.75;30.42;;;;;;;;;;5091901;28;20032;-80
2022/11/19 08:06:34;;;;;;;39.92;29.77;;;;;;;;;;5058457;28;20412;-79
2022/11/19 08:09:02;;;;;;;40.80;27.15;;;;;;;;;;5075343;28;20035;-79
2022/11/19 08:11:30;;;;;;;36.20;25.60;;;;;;;;;;5075182;28;20060;-80
2022/11/19 08:14:00;;;;;;;35.15;23.02;;;;;;;;;;5058333;28;20393;-78
2022/11/19 08:19:20;;;;;;;32.45;21.42;;;;;;;;;;5076877;28;20539;-78
2022/11/19 08:21:47;;;;;;;31.73;22.50;;;;;;;;;;5074080;28;20046;-79
2022/11/19 08:24:16;;;;;;;33.65;22.15;;;;;;;;;;5074567;28;20402;-78
2022/11/19 08:26:42;;;;;;;30.95;21.23;;;;;;;;;;5074316;28;20039;-78
2022/11/19 08:29:07;;;;;;;32.63;20.55;;;;;;;;;;5057620;28;20055;-78
2022/11/19 08:31:33;;;;;;;27.70;19.33;;;;;;;;;;5070027;28;20501;-77
2022/11/19 08:34:00;;;;;;;29.08;19.35;;;;;;;;;;5037192;28;20029;-77
2022/11/19 08:36:26;;;;;;;27.17;19.52;;;;;;;;;;5021080;28;20175;-79
2022/11/19 08:38:51;;;;;;;31.75;17.42;;;;;;;;;;5050134;28;20115;-80
2022/11/19 08:44:01;;;;;;;27.73;17.63;;;;;;;;;;5070137;28;20398;-78
2022/11/19 08:46:26;;;;;;;24.80;16.65;;;;;;;;;;5036688;28;20044;-79
2022/11/19 08:48:52;;;;;;;20.35;14.80;;;;;;;;;;5037287;28;20134;-79
2022/11/19 08:51:17;;;;;;;24.63;15.77;;;;;;;;;;5053727;28;20025;-79
2022/11/19 08:53:43;;;;;;;20.80;15.48;;;;;;;;;;5054429;28;20046;-79
2022/11/19 08:56:08;;;;;;;22.77;15.75;;;;;;;;;;5037376;28;20033;-79
2022/11/19 08:58:34;;;;;;;19.73;14.45;;;;;;;;;;5037273;28;20082;-79
2022/11/19 09:01:07;;;;;;;24.75;15.45;;;;;;;;;;5037588;28;20075;-79
2022/11/19 09:03:34;;;;;;;21.55;16.10;;;;;;;;;;5051057;28;20501;-79
2022/11/19 09:06:00;;;;;;;20.88;12.90;;;;;;;;;;5020887;28;20089;-79
2022/11/19 09:08:25;;;;;;;20.20;13.98;;;;;;;;;;5036818;28;20101;-79
2022/11/19 09:10:51;;;;;;;18.50;13.60;;;;;;;;;;5037310;28;20045;-79
2022/11/19 09:13:16;;;;;;;17.85;13.43;;;;;;;;;;5053858;28;20044;-78
2022/11/19 09:15:41;;;;;;;17.67;12.68;;;;;;;;;;5053722;28;20390;-78
2022/11/19 09:18:07;;;;;;;19.33;13.60;;;;;;;;;;5036961;28;20040;-79
2022/11/19 09:20:32;;;;;;;17.50;12.40;;;;;;;;;;5020560;28;20037;-79
2022/11/19 09:22:58;;;;;;;19.35;13.45;;;;;;;;;;5036900;28;20036;-78
2022/11/19 09:25:23;;;;;;;16.08;12.10;;;;;;;;;;5020673;28;20456;-78
2022/11/19 09:27:48;;;;;;;13.98;11.65;;;;;;;;;;5020260;28;20029;-78
2022/11/19 09:30:14;;;;;;;14.90;11.85;;;;;;;;;;5037352;28;20025;-78
2022/11/19 09:32:39;;;;;;;15.70;10.88;;;;;;;;;;5053297;28;20037;-78
2022/11/19 09:35:05;;;;;;;14.85;10.85;;;;;;;;;;5053235;28;20514;-78
2022/11/19 09:37:32;;;;;;;14.52;11.18;;;;;;;;;;5038793;28;20090;-78
2022/11/19 09:39:58;;;;;;;15.55;11.35;;;;;;;;;;5054149;28;20021;-79
2022/11/19 09:42:37;;;;;;;16.40;11.27;;;;;;;;;;5036963;28;20040;-79
2022/11/19 09:45:13;;;;;;;13.38;10.75;;;;;;;;;;5036292;28;20047;-79
2022/11/19 09:47:53;;;;;;;12.35;10.27;;;;;;;;;;5057068;28;20040;-78
2022/11/19 09:50:23;;;;;;;12.63;10.43;;;;;;;;;;5073369;28;20028;-78
2022/11/19 09:52:55;;;;;;;15.23;10.50;;;;;;;;;;5056719;28;20032;-78
2022/11/19 09:55:39;;;;;;;13.05;10.30;;;;;;;;;;5040831;28;20028;-79
2022/11/19 09:58:08;;;;;;;14.10;10.05;;;;;;;;;;5056634;28;20089;-78
2022/11/19 10:00:35;;;;;;;13.57;9.95;;;;;;;;;;5057176;28;20032;-78
2022/11/19 10:03:01;;;;;;;12.10;9.38;;;;;;;;;;5036155;28;20252;-79
2022/11/19 10:05:41;;;;;;;11.75;9.60;;;;;;;;;;5037238;28;20028;-79
2022/11/19 10:08:25;;;;;;;11.88;9.13;;;;;;;;;;5053313;28;20041;-79
2022/11/19 10:11:02;;;;;;;12.02;8.43;;;;;;;;;;5053350;28;20043;-79
2022/11/19 10:13:38;;;;;;;11.13;9.05;;;;;;;;;;5037210;28;20055;-79
2022/11/19 10:16:09;;;;;;;12.18;9.23;;;;;;;;;;5053566;28;20033;-78
2022/11/19 10:19:02;;;;;;;11.05;9.63;;;;;;;;;;5053050;28;20457;-79
2022/11/19 10:21:42;;;;;;;11.07;8.75;;;;;;;;;;5057121;28;20028;-78
2022/11/19 10:24:16;;;;;;;11.10;8.68;;;;;;;;;;5056681;28;20044;-79
2022/11/19 10:26:44;;;;;;;11.57;8.93;;;;;;;;;;5024367;28;20127;-78
2022/11/19 10:29:18;;;;;;;10.35;8.90;;;;;;;;;;5056663;28;20502;-78
2022/11/19 10:31:45;;;;;;;10.43;8.68;;;;;;;;;;5043615;28;20077;-78
2022/11/19 10:34:28;;;;;;;10.07;8.48;;;;;;;;;;5043205;28;20104;-78
2022/11/19 10:37:16;;;;;;;10.15;8.40;;;;;;;;;;5044496;28;20032;-77
2022/11/19 10:40:11;;;;;;;9.95;8.60;;;;;;;;;;5076411;28;20047;-78
2022/11/19 10:42:38;;;;;;;9.90;7.63;;;;;;;;;;5063223;28;20539;-78
2022/11/19 10:45:20;;;;;;;9.40;8.18;;;;;;;;;;5076047;28;20036;-79
2022/11/19 10:48:08;;;;;;;9.07;7.05;;;;;;;;;;5075849;28;20036;-77
2022/11/19 10:50:33;;;;;;;10.57;8.18;;;;;;;;;;5076067;28;20036;-77
2022/11/19 10:53:16;;;;;;;9.68;7.97;;;;;;;;;;5059290;28;20435;-77
2022/11/19 10:55:55;;;;;;;8.13;6.93;;;;;;;;;;5076172;28;20032;-79
2022/11/19 10:58:34;;;;;;;8.52;7.07;;;;;;;;;;5059174;28;20374;-79
2022/11/19 11:01:01;;;;;;;8.00;7.15;;;;;;;;;;5058931;28;20036;-79
2022/11/19 11:03:40;;;;;;;8.80;6.97;;;;;;;;;;5072077;28;20032;-78
2022/11/19 11:06:08;;;;;;;9.73;7.10;;;;;;;;;;5056319;28;20486;-78
2022/11/19 11:08:55;;;;;;;8.23;6.90;;;;;;;;;;5039940;28;20032;-78
2022/11/19 11:14:51;;;;;;;7.47;6.03;;;;;;;;;;4994583;28;20030;-78
2022/11/19 11:17:22;;;;;;;;;;;;;;;;;;4950837;28;20041;-78
2022/11/19 11:20:07;;;;;;;7.45;6.03;;;;;;;;;;5040962;28;19920;-78
2022/11/19 11:22:33;;;;;;;7.47;5.80;;;;;;;;;;5056055;28;20039;-79
2022/11/19 11:24:59;;;;;;;7.75;6.70;;;;;;;;;;5039381;28;20088;-79
2022/11/19 11:27:32;;;;;;;7.25;6.22;;;;;;;;;;5055564;28;20490;-79
2022/11/19 11:30:15;;;;;;;7.60;6.20;;;;;;;;;;5056327;28;20043;-79
2022/11/19 11:32:40;;;;;;;6.85;6.15;;;;;;;;;;5042398;28;20036;-79
2022/11/19 11:35:26;;;;;;;7.20;6.38;;;;;;;;;;5042210;28;20024;-79
2022/11/19 11:37:51;;;;;;;7.05;5.95;;;;;;;;;;5061496;28;20467;-78
2022/11/19 11:40:19;;;;;;;7.28;5.75;;;;;;;;;;5075425;28;20089;-78
2022/11/19 11:42:44;;;;;;;6.70;5.78;;;;;;;;;;5058820;28;20035;-79
2022/11/19 11:45:19;;;;;;;6.97;5.80;;;;;;;;;;5074630;28;20390;-78
2022/11/19 11:47:44;;;;;;;6.45;5.65;;;;;;;;;;5058543;28;20032;-78
2022/11/19 11:50:14;;;;;;;6.35;5.38;;;;;;;;;;5074960;28;20256;-78
2022/11/19 11:52:44;;;;;;;6.20;5.10;;;;;;;;;;5058560;28;20032;-77
2022/11/19 11:55:37;;;;;;;7.43;5.60;;;;;;;;;;5074773;28;20082;-79
2022/11/19 11:58:25;;;;;;;7.20;6.10;;;;;;;;;;5072175;28;20044;-78
2022/11/19 12:00:54;;;;;;;8.43;6.45;;;;;;;;;;5070712;28;20028;-78
2022/11/19 12:03:20;;;;;;;5.60;4.70;;;;;;;;;;5052938;28;20036;-78
2022/11/19 12:06:11;;;;;;;5.80;5.00;;;;;;;;;;5058218;28;20077;-79
2022/11/19 12:09:02;;;;;;;6.35;5.53;;;;;;;;;;5059222;28;20034;-83
2022/11/19 12:11:52;;;;;;;8.10;5.50;;;;;;;;;;5058434;28;20053;-82
2022/11/19 12:14:27;;;;;;;7.13;5.90;;;;;;;;;;5077493;28;20032;-83
2022/11/19 12:17:05;;;;;;;8.07;5.63;;;;;;;;;;5042114;28;20028;-82
2022/11/19 12:19:40;;;;;;;13.10;6.82;;;;;;;;;;5092206;28;20047;-82
2022/11/19 12:22:15;;;;;;;7.72;6.00;;;;;;;;;;5058679;28;20423;-82
2022/11/19 12:24:55;;;;;;;8.30;5.82;;;;;;;;;;5075247;28;20024;-81
2022/11/19 12:27:36;;;;;;;7.60;5.30;;;;;;;;;;5057774;28;20039;-81
2022/11/19 12:30:17;;;;;;;7.50;5.88;;;;;;;;;;5074962;28;20493;-83
2022/11/19 12:32:54;;;;;;;8.40;6.32;;;;;;;;;;5042049;28;20068;-82
2022/11/19 12:35:48;;;;;;;7.95;4.65;;;;;;;;;;5091758;28;20036;-81
2022/11/19 12:38:38;;;;;;;9.02;5.35;;;;;;;;;;5074490;28;20521;-82
2022/11/19 12:41:12;;;;;;;8.40;4.05;;;;;;;;;;5074328;28;20028;-83
2022/11/19 12:44:05;;;;;;;7.75;5.28;;;;;;;;;;5056775;28;20134;-81
2022/11/19 12:46:33;;;;;;;6.63;5.15;;;;;;;;;;5057764;28;20036;-81
2022/11/19 12:49:02;;;;;;;7.82;4.60;;;;;;;;;;5074486;28;20153;-81
2022/11/19 12:51:30;;;;;;;7.93;4.40;;;;;;;;;;5057712;28;20036;-82
2022/11/19 12:54:18;;;;;;;7.90;4.40;;;;;;;;;;5074229;28;20086;-82
2022/11/19 12:57:21;;;;;;;6.47;4.22;;;;;;;;;;5057954;28;20032;-81
2022/11/19 12:59:56;;;;;;;6.32;4.65;;;;;;;;;;5074239;28;20046;-81
2022/11/19 13:02:26;;;;;;;7.75;4.35;;;;;;;;;;5074001;28;20176;-81
2022/11/19 13:04:55;;;;;;;5.82;4.43;;;;;;;;;;5057670;28;20036;-81
2022/11/19 13:07:22;;;;;;;5.70;4.38;;;;;;;;;;5057514;28;20119;-81
2022/11/19 13:09:52;;;;;;;8.93;4.85;;;;;;;;;;5057616;28;20501;-81
2022/11/19 13:12:40;;;;;;;7.32;4.65;;;;;;;;;;5057590;28;20032;-82
2022/11/19 13:15:16;;;;;;;7.22;4.70;;;;;;;;;;5090837;28;20035;-78
2022/11/19 13:17:43;;;;;;;6.90;4.35;;;;;;;;;;5073952;28;20054;-79
2022/11/19 13:20:44;;;;;;;7.95;4.68;;;;;;;;;;5057090;28;20032;-78
2022/11/19 13:23:14;;;;;;;9.73;4.57;;;;;;;;;;5076023;28;20028;-78
2022/11/19 13:25:53;;;;;;;6.57;4.75;;;;;;;;;;5057420;28;20028;-78
2022/11/19 13:28:25;;;;;;;5.55;4.22;;;;;;;;;;5074908;28;20067;-78
2022/11/19 13:30:51;;;;;;;7.40;4.65;;;;;;;;;;5056729;28;20217;-79
2022/11/19 13:33:55;;;;;;;6.53;4.30;;;;;;;;;;5039934;28;20032;-79
2022/11/19 13:36:38;;;;;;;7.75;4.97;;;;;;;;;;5032194;28;20422;-79
2022/11/19 13:39:12;;;;;;;7.43;4.55;;;;;;;;;;5053624;28;20048;-79
2022/11/19 13:44:42;;;;;;;7.60;4.18;;;;;;;;;;5075645;28;20032;-77
2022/11/19 13:47:24;;;;;;;8.80;4.40;;;;;;;;;;5072552;28;20024;-78
2022/11/19 13:49:52;;;;;;;6.20;4.38;;;;;;;;;;5056896;28;20054;-77
2022/11/19 13:52:30;;;;;;;9.43;4.50;;;;;;;;;;5040264;28;20032;-77
2022/11/19 13:54:56;;;;;;;7.72;4.38;;;;;;;;;;5059505;28;20043;-77
2022/11/19 13:57:33;;;;;;;4.78;3.85;;;;;;;;;;5060042;28;20020;-79
2022/11/19 14:00:07;;;;;;;5.70;4.45;;;;;;;;;;5043605;28;20063;-77
2022/11/19 14:02:51;;;;;;;6.68;4.78;;;;;;;;;;5060838;28;20040;-79
2022/11/19 14:05:39;;;;;;;9.15;4.65;;;;;;;;;;5093522;28;20418;-77
2022/11/19 14:08:17;;;;;;;6.90;5.30;;;;;;;;;;5075918;28;20107;-77
2022/11/19 14:10:55;;;;;;;7.93;4.60;;;;;;;;;;5093513;28;20064;-77
2022/11/19 14:13:32;;;;;;;5.30;4.45;;;;;;;;;;5093478;28;20397;-77
2022/11/19 14:28:40;;;;;;;6.72;5.05;;;;;;;;;;5079595;28;20524;-78
2022/11/19 14:31:06;;;;;;;5.75;4.10;;;;;;;;;;5043063;28;20036;-78
2022/11/19 14:33:47;;;;;;;5.03;3.85;;;;;;;;;;5059616;28;20043;-77
2022/11/19 14:36:18;;;;;;;4.95;4.13;;;;;;;;;;5093213;28;20512;-77
2022/11/19 14:38:55;;;;;;;4.20;3.70;;;;;;;;;;5039386;28;20028;-77
2022/11/19 14:41:26;;;;;;;5.50;4.00;;;;;;;;;;5042344;28;20060;-79
2022/11/19 14:44:08;;;;;;;5.70;4.32;;;;;;;;;;5056870;28;20028;-77
2022/11/19 14:46:35;;;;;;;4.38;3.90;;;;;;;;;;5040972;28;20079;-79
2022/11/19 14:49:02;;;;;;;6.40;4.32;;;;;;;;;;5039252;28;20513;-79
2022/11/19 14:51:32;;;;;;;5.32;4.20;;;;;;;;;;5039790;28;20086;-78
2022/11/19 14:54:08;;;;;;;4.35;3.70;;;;;;;;;;5055520;28;20067;-79
2022/11/19 14:56:34;;;;;;;5.43;4.35;;;;;;;;;;5056673;28;20025;-79
2022/11/19 14:59:13;;;;;;;4.95;4.18;;;;;;;;;;5039154;28;20032;-79
2022/11/19 15:01:48;;;;;;;6.65;4.65;;;;;;;;;;5073385;28;20041;-80
2022/11/19 15:04:13;;;;;;;6.03;4.40;;;;;;;;;;5092621;28;20393;-80
2022/11/19 15:06:39;;;;;;;6.50;4.38;;;;;;;;;;5074661;28;20044;-78
2022/11/19 15:09:04;;;;;;;18.13;11.05;;;;;;;;;;5058516;28;20078;-80
2022/11/19 15:11:54;;;;;;;16.50;12.95;;;;;;;;;;5042059;28;20089;-79
2022/11/19 15:14:34;;;;;;;36.15;26.38;;;;;;;;;;5075083;28;20035;-77
2022/11/19 15:17:02;;;;;;;32.00;23.88;;;;;;;;;;5075109;28;20044;-77
2022/11/19 15:19:36;;;;;;;27.83;22.48;;;;;;;;;;5059551;28;20046;-80
2022/11/19 15:22:25;;;;;;;26.30;21.02;;;;;;;;;;5075258;28;20121;-80
2022/11/19 15:24:53;;;;;;;25.77;20.88;;;;;;;;;;5075953;28;20024;-81
2022/11/19 15:27:37;;;;;;;24.90;20.55;;;;;;;;;;5058635;28;20062;-82
2022/11/19 15:30:03;;;;;;;27.15;20.02;;;;;;;;;;5089586;28;20056;-80
2022/11/19 15:33:13;;;;;;;27.85;20.63;;;;;;;;;;5055233;28;20573;-80
2022/11/19 15:36:01;;;;;;;26.33;20.13;;;;;;;;;;4996882;28;20542;-79
2022/11/19 15:38:36;;;;;;;25.15;19.20;;;;;;;;;;5055545;28;20420;-80
2022/11/19 15:41:02;;;;;;;23.52;18.52;;;;;;;;;;5054363;28;20049;-81
2022/11/19 15:43:30;;;;;;;22.58;18.73;;;;;;;;;;5037031;28;20066;-80
2022/11/19 15:46:15;;;;;;;25.98;17.20;;;;;;;;;;5038084;28;20039;-80